Terminal Aerodrome Forecast
Issued by NWS

Home | Current Version | Previous Version | Text Only | Print | Product List | Glossary On
Versions: 1 2 3 4 5 6 7 8 9 10 11 12 13 14 15 16 17 18 19 20
000
FTUS43 KGRB 271122
TAFRHI
TAF
KRHI 271122Z 2712/2812 26004KT 2SM BR SCT002
      TEMPO 2712/2714 5SM BR SKC
     FM271400 28005KT P6SM BKN250
     FM271800 28009KT P6SM FEW070 BKN250
     FM280000 VRB03KT P6SM BKN250
     FM280500 00000KT P6SM SCT070 BKN200 PROB30 2808/2812 5SM -SHRA
      BR BKN070=

USA.gov is the U.S. government's official web portal to all federal, state and local government web resources and services.